sensor_id;sensor_type;location;lat;lon;timestamp;P1;durP1;ratioP1;P2;durP2;ratioP2
71696;SDS011;59528;59.082;37.926;2022-11-21T00:01:27;20.80;;;8.03;;
71696;SDS011;59528;59.082;37.926;2022-11-21T00:03:52;21.60;;;8.93;;
71696;SDS011;59528;59.082;37.926;2022-11-21T00:06:18;24.00;;;9.47;;
71696;SDS011;59528;59.082;37.926;2022-11-21T00:08:44;23.47;;;8.73;;
71696;SDS011;59528;59.082;37.926;2022-11-21T00:11:10;25.50;;;8.80;;
71696;SDS011;59528;59.082;37.926;2022-11-21T00:13:36;17.63;;;8.80;;
71696;SDS011;59528;59.082;37.926;2022-11-21T00:16:03;28.73;;;9.27;;
71696;SDS011;59528;59.082;37.926;2022-11-21T00:18:28;27.83;;;9.33;;
71696;SDS011;59528;59.082;37.926;2022-11-21T00:20:54;21.57;;;8.47;;
71696;SDS011;59528;59.082;37.926;2022-11-21T00:23:19;22.40;;;7.97;;
71696;SDS011;59528;59.082;37.926;2022-11-21T00:25:45;17.13;;;7.43;;
71696;SDS011;59528;59.082;37.926;2022-11-21T00:28:10;12.83;;;6.33;;
71696;SDS011;59528;59.082;37.926;2022-11-21T00:30:36;18.13;;;6.33;;
71696;SDS011;59528;59.082;37.926;2022-11-21T00:33:02;12.70;;;6.10;;
71696;SDS011;59528;59.082;37.926;2022-11-21T00:35:27;13.73;;;5.83;;
71696;SDS011;59528;59.082;37.926;2022-11-21T00:37:53;15.63;;;6.33;;
71696;SDS011;59528;59.082;37.926;2022-11-21T00:40:18;13.67;;;6.23;;
71696;SDS011;59528;59.082;37.926;2022-11-21T00:42:44;11.97;;;5.50;;
71696;SDS011;59528;59.082;37.926;2022-11-21T00:45:09;9.37;;;5.07;;
71696;SDS011;59528;59.082;37.926;2022-11-21T00:47:35;12.00;;;5.47;;
71696;SDS011;59528;59.082;37.926;2022-11-21T00:50:01;13.93;;;5.87;;
71696;SDS011;59528;59.082;37.926;2022-11-21T00:52:26;10.57;;;5.03;;
71696;SDS011;59528;59.082;37.926;2022-11-21T00:54:53;10.70;;;6.00;;
71696;SDS011;59528;59.082;37.926;2022-11-21T00:57:18;14.73;;;6.43;;
71696;SDS011;59528;59.082;37.926;2022-11-21T00:59:44;15.53;;;5.43;;
71696;SDS011;59528;59.082;37.926;2022-11-21T01:02:09;10.63;;;5.20;;
71696;SDS011;59528;59.082;37.926;2022-11-21T01:04:35;18.30;;;5.93;;
71696;SDS011;59528;59.082;37.926;2022-11-21T01:07:00;12.10;;;6.10;;
71696;SDS011;59528;59.082;37.926;2022-11-21T01:09:26;13.93;;;6.27;;
71696;SDS011;59528;59.082;37.926;2022-11-21T01:11:54;15.63;;;6.37;;
71696;SDS011;59528;59.082;37.926;2022-11-21T01:14:19;15.80;;;6.27;;
71696;SDS011;59528;59.082;37.926;2022-11-21T01:16:45;16.27;;;6.40;;
71696;SDS011;59528;59.082;37.926;2022-11-21T01:19:10;18.50;;;6.93;;
71696;SDS011;59528;59.082;37.926;2022-11-21T01:21:36;17.90;;;7.77;;
71696;SDS011;59528;59.082;37.926;2022-11-21T01:24:02;19.97;;;6.83;;
71696;SDS011;59528;59.082;37.926;2022-11-21T01:26:28;17.23;;;6.60;;
71696;SDS011;59528;59.082;37.926;2022-11-21T01:28:56;19.00;;;6.67;;
71696;SDS011;59528;59.082;37.926;2022-11-21T01:31:23;15.10;;;6.47;;
71696;SDS011;59528;59.082;37.926;2022-11-21T01:33:48;15.90;;;7.13;;
71696;SDS011;59528;59.082;37.926;2022-11-21T01:36:24;20.77;;;7.10;;
71696;SDS011;59528;59.082;37.926;2022-11-21T01:38:51;18.27;;;6.63;;
71696;SDS011;59528;59.082;37.926;2022-11-21T01:41:36;15.77;;;6.93;;
71696;SDS011;59528;59.082;37.926;2022-11-21T01:44:08;17.70;;;7.40;;
71696;SDS011;59528;59.082;37.926;2022-11-21T01:46:34;14.27;;;6.13;;
71696;SDS011;59528;59.082;37.926;2022-11-21T01:49:07;14.97;;;6.17;;
71696;SDS011;59528;59.082;37.926;2022-11-21T01:54:04;15.97;;;5.23;;
71696;SDS011;59528;59.082;37.926;2022-11-21T01:56:39;11.90;;;5.70;;
71696;SDS011;59528;59.082;37.926;2022-11-21T01:59:06;13.07;;;5.20;;
71696;SDS011;59528;59.082;37.926;2022-11-21T02:01:33;12.47;;;5.13;;
71696;SDS011;59528;59.082;37.926;2022-11-21T02:04:00;13.83;;;5.20;;
71696;SDS011;59528;59.082;37.926;2022-11-21T02:06:26;15.57;;;5.00;;
71696;SDS011;59528;59.082;37.926;2022-11-21T02:08:52;11.43;;;4.33;;
71696;SDS011;59528;59.082;37.926;2022-11-21T02:11:37;13.20;;;4.97;;
71696;SDS011;59528;59.082;37.926;2022-11-21T02:14:04;9.63;;;4.30;;
71696;SDS011;59528;59.082;37.926;2022-11-21T02:16:30;12.70;;;4.73;;
71696;SDS011;59528;59.082;37.926;2022-11-21T02:18:57;16.03;;;4.57;;
71696;SDS011;59528;59.082;37.926;2022-11-21T02:23:56;14.67;;;5.30;;
71696;SDS011;59528;59.082;37.926;2022-11-21T02:26:24;14.13;;;5.77;;
71696;SDS011;59528;59.082;37.926;2022-11-21T02:28:50;10.90;;;5.07;;
71696;SDS011;59528;59.082;37.926;2022-11-21T02:31:15;11.73;;;5.83;;
71696;SDS011;59528;59.082;37.926;2022-11-21T02:33:41;11.93;;;5.37;;
71696;SDS011;59528;59.082;37.926;2022-11-21T02:38:51;14.77;;;5.40;;
71696;SDS011;59528;59.082;37.926;2022-11-21T02:41:19;10.10;;;5.13;;
71696;SDS011;59528;59.082;37.926;2022-11-21T02:43:54;12.93;;;5.47;;
71696;SDS011;59528;59.082;37.926;2022-11-21T02:46:21;9.47;;;4.53;;
71696;SDS011;59528;59.082;37.926;2022-11-21T02:48:47;12.30;;;5.17;;
71696;SDS011;59528;59.082;37.926;2022-11-21T02:51:13;9.20;;;4.67;;
71696;SDS011;59528;59.082;37.926;2022-11-21T02:53:38;13.63;;;5.27;;
71696;SDS011;59528;59.082;37.926;2022-11-21T02:56:04;9.63;;;4.60;;
71696;SDS011;59528;59.082;37.926;2022-11-21T02:58:30;13.60;;;5.60;;
71696;SDS011;59528;59.082;37.926;2022-11-21T03:00:56;12.93;;;5.97;;
71696;SDS011;59528;59.082;37.926;2022-11-21T03:03:21;14.10;;;5.03;;
71696;SDS011;59528;59.082;37.926;2022-11-21T03:05:47;11.40;;;5.20;;
71696;SDS011;59528;59.082;37.926;2022-11-21T03:08:13;13.50;;;4.90;;
71696;SDS011;59528;59.082;37.926;2022-11-21T03:10:38;13.00;;;5.13;;
71696;SDS011;59528;59.082;37.926;2022-11-21T03:13:04;16.80;;;5.70;;
71696;SDS011;59528;59.082;37.926;2022-11-21T03:15:31;15.77;;;6.13;;
71696;SDS011;59528;59.082;37.926;2022-11-21T03:17:57;15.73;;;6.37;;
71696;SDS011;59528;59.082;37.926;2022-11-21T03:20:23;16.50;;;6.10;;
71696;SDS011;59528;59.082;37.926;2022-11-21T03:22:49;15.80;;;6.10;;
71696;SDS011;59528;59.082;37.926;2022-11-21T03:25:14;17.30;;;5.97;;
71696;SDS011;59528;59.082;37.926;2022-11-21T03:27:40;16.90;;;5.63;;
71696;SDS011;59528;59.082;37.926;2022-11-21T03:30:06;14.77;;;5.43;;
71696;SDS011;59528;59.082;37.926;2022-11-21T03:32:35;14.73;;;5.73;;
71696;SDS011;59528;59.082;37.926;2022-11-21T03:35:00;16.50;;;5.67;;
71696;SDS011;59528;59.082;37.926;2022-11-21T03:37:26;16.37;;;6.40;;
71696;SDS011;59528;59.082;37.926;2022-11-21T03:39:52;17.53;;;5.77;;
71696;SDS011;59528;59.082;37.926;2022-11-21T03:42:17;17.83;;;5.40;;
71696;SDS011;59528;59.082;37.926;2022-11-21T03:44:43;12.83;;;5.70;;
71696;SDS011;59528;59.082;37.926;2022-11-21T03:47:08;13.20;;;5.60;;
71696;SDS011;59528;59.082;37.926;2022-11-21T03:49:34;15.40;;;6.27;;
71696;SDS011;59528;59.082;37.926;2022-11-21T03:52:00;17.80;;;6.27;;
71696;SDS011;59528;59.082;37.926;2022-11-21T03:54:26;14.27;;;6.80;;
71696;SDS011;59528;59.082;37.926;2022-11-21T03:56:52;15.83;;;5.87;;
71696;SDS011;59528;59.082;37.926;2022-11-21T03:59:17;16.30;;;6.10;;
71696;SDS011;59528;59.082;37.926;2022-11-21T04:01:43;19.90;;;6.47;;
71696;SDS011;59528;59.082;37.926;2022-11-21T04:04:08;17.33;;;6.87;;
71696;SDS011;59528;59.082;37.926;2022-11-21T04:06:34;17.33;;;7.17;;
71696;SDS011;59528;59.082;37.926;2022-11-21T04:08:59;19.10;;;7.50;;
71696;SDS011;59528;59.082;37.926;2022-11-21T04:11:25;20.47;;;6.97;;
71696;SDS011;59528;59.082;37.926;2022-11-21T04:13:51;21.30;;;7.77;;
71696;SDS011;59528;59.082;37.926;2022-11-21T04:16:17;18.47;;;7.30;;
71696;SDS011;59528;59.082;37.926;2022-11-21T04:18:42;21.47;;;7.30;;
71696;SDS011;59528;59.082;37.926;2022-11-21T04:21:08;19.50;;;7.77;;
71696;SDS011;59528;59.082;37.926;2022-11-21T04:23:34;23.47;;;7.57;;
71696;SDS011;59528;59.082;37.926;2022-11-21T04:25:59;17.50;;;7.43;;
71696;SDS011;59528;59.082;37.926;2022-11-21T04:28:25;20.70;;;8.17;;
71696;SDS011;59528;59.082;37.926;2022-11-21T04:30:51;22.87;;;8.30;;
71696;SDS011;59528;59.082;37.926;2022-11-21T04:33:17;19.70;;;8.13;;
71696;SDS011;59528;59.082;37.926;2022-11-21T04:35:43;19.63;;;8.00;;
71696;SDS011;59528;59.082;37.926;2022-11-21T04:38:10;21.33;;;7.63;;
71696;SDS011;59528;59.082;37.926;2022-11-21T04:40:35;21.10;;;8.00;;
71696;SDS011;59528;59.082;37.926;2022-11-21T04:43:01;23.50;;;7.60;;
71696;SDS011;59528;59.082;37.926;2022-11-21T04:45:26;18.57;;;7.40;;
71696;SDS011;59528;59.082;37.926;2022-11-21T04:47:52;17.93;;;8.30;;
71696;SDS011;59528;59.082;37.926;2022-11-21T04:50:18;22.00;;;8.70;;
71696;SDS011;59528;59.082;37.926;2022-11-21T04:52:50;19.70;;;8.00;;
71696;SDS011;59528;59.082;37.926;2022-11-21T04:55:16;18.23;;;7.70;;
71696;SDS011;59528;59.082;37.926;2022-11-21T04:57:42;25.07;;;8.27;;
71696;SDS011;59528;59.082;37.926;2022-11-21T05:00:09;21.67;;;7.93;;
71696;SDS011;59528;59.082;37.926;2022-11-21T05:02:35;20.30;;;7.80;;
71696;SDS011;59528;59.082;37.926;2022-11-21T05:05:00;20.53;;;7.43;;
71696;SDS011;59528;59.082;37.926;2022-11-21T05:07:26;18.93;;;8.10;;
71696;SDS011;59528;59.082;37.926;2022-11-21T05:09:52;18.60;;;8.17;;
71696;SDS011;59528;59.082;37.926;2022-11-21T05:12:17;22.63;;;7.53;;
71696;SDS011;59528;59.082;37.926;2022-11-21T05:15:02;21.63;;;8.03;;
71696;SDS011;59528;59.082;37.926;2022-11-21T05:17:29;24.43;;;8.97;;
71696;SDS011;59528;59.082;37.926;2022-11-21T05:19:54;20.40;;;8.13;;
71696;SDS011;59528;59.082;37.926;2022-11-21T05:22:20;20.70;;;8.20;;
71696;SDS011;59528;59.082;37.926;2022-11-21T05:24:46;18.63;;;7.97;;
71696;SDS011;59528;59.082;37.926;2022-11-21T05:27:11;22.20;;;8.37;;
71696;SDS011;59528;59.082;37.926;2022-11-21T05:29:37;22.30;;;8.37;;
71696;SDS011;59528;59.082;37.926;2022-11-21T05:32:03;20.67;;;8.50;;
71696;SDS011;59528;59.082;37.926;2022-11-21T05:34:30;26.60;;;8.23;;
71696;SDS011;59528;59.082;37.926;2022-11-21T05:36:56;21.67;;;7.37;;
71696;SDS011;59528;59.082;37.926;2022-11-21T05:39:25;25.10;;;8.20;;
71696;SDS011;59528;59.082;37.926;2022-11-21T05:41:50;22.57;;;8.93;;
71696;SDS011;59528;59.082;37.926;2022-11-21T05:44:16;23.53;;;8.20;;
71696;SDS011;59528;59.082;37.926;2022-11-21T05:46:42;20.53;;;7.70;;
71696;SDS011;59528;59.082;37.926;2022-11-21T05:49:09;20.47;;;8.27;;
71696;SDS011;59528;59.082;37.926;2022-11-21T05:51:34;23.97;;;8.57;;
71696;SDS011;59528;59.082;37.926;2022-11-21T05:54:00;21.50;;;8.23;;
71696;SDS011;59528;59.082;37.926;2022-11-21T05:56:26;17.83;;;7.80;;
71696;SDS011;59528;59.082;37.926;2022-11-21T05:58:55;21.33;;;8.07;;
71696;SDS011;59528;59.082;37.926;2022-11-21T06:01:21;20.27;;;7.40;;
71696;SDS011;59528;59.082;37.926;2022-11-21T06:04:07;19.10;;;7.03;;
71696;SDS011;59528;59.082;37.926;2022-11-21T06:06:33;21.27;;;7.63;;
71696;SDS011;59528;59.082;37.926;2022-11-21T06:08:58;21.20;;;6.87;;
71696;SDS011;59528;59.082;37.926;2022-11-21T06:11:24;16.27;;;7.37;;
71696;SDS011;59528;59.082;37.926;2022-11-21T06:13:50;18.03;;;7.73;;
71696;SDS011;59528;59.082;37.926;2022-11-21T06:16:17;14.40;;;6.83;;
71696;SDS011;59528;59.082;37.926;2022-11-21T06:18:44;16.93;;;7.03;;
71696;SDS011;59528;59.082;37.926;2022-11-21T06:21:12;19.83;;;6.77;;
71696;SDS011;59528;59.082;37.926;2022-11-21T06:23:38;18.57;;;7.43;;
71696;SDS011;59528;59.082;37.926;2022-11-21T06:26:05;16.33;;;6.40;;
71696;SDS011;59528;59.082;37.926;2022-11-21T06:28:37;17.63;;;7.33;;
71696;SDS011;59528;59.082;37.926;2022-11-21T06:31:04;21.80;;;7.57;;
71696;SDS011;59528;59.082;37.926;2022-11-21T06:33:29;18.20;;;6.40;;
71696;SDS011;59528;59.082;37.926;2022-11-21T06:35:55;15.87;;;7.10;;
71696;SDS011;59528;59.082;37.926;2022-11-21T06:38:21;22.13;;;7.07;;
71696;SDS011;59528;59.082;37.926;2022-11-21T06:40:46;21.63;;;7.83;;
71696;SDS011;59528;59.082;37.926;2022-11-21T06:43:12;23.23;;;7.60;;
71696;SDS011;59528;59.082;37.926;2022-11-21T06:45:38;23.43;;;7.93;;
71696;SDS011;59528;59.082;37.926;2022-11-21T06:48:03;20.67;;;7.27;;
71696;SDS011;59528;59.082;37.926;2022-11-21T06:50:29;20.83;;;8.20;;
71696;SDS011;59528;59.082;37.926;2022-11-21T06:52:56;19.27;;;8.03;;
71696;SDS011;59528;59.082;37.926;2022-11-21T06:55:23;26.23;;;8.20;;
71696;SDS011;59528;59.082;37.926;2022-11-21T06:57:49;20.17;;;7.30;;
71696;SDS011;59528;59.082;37.926;2022-11-21T07:00:15;20.87;;;8.10;;
71696;SDS011;59528;59.082;37.926;2022-11-21T07:02:41;26.47;;;9.43;;
71696;SDS011;59528;59.082;37.926;2022-11-21T07:05:06;24.10;;;8.10;;
71696;SDS011;59528;59.082;37.926;2022-11-21T07:07:32;24.67;;;8.10;;
71696;SDS011;59528;59.082;37.926;2022-11-21T07:09:58;24.93;;;9.47;;
71696;SDS011;59528;59.082;37.926;2022-11-21T07:12:24;23.37;;;8.23;;
71696;SDS011;59528;59.082;37.926;2022-11-21T07:15:09;22.73;;;8.07;;
71696;SDS011;59528;59.082;37.926;2022-11-21T07:17:35;23.27;;;8.10;;
71696;SDS011;59528;59.082;37.926;2022-11-21T07:20:00;21.27;;;8.63;;
71696;SDS011;59528;59.082;37.926;2022-11-21T07:22:26;28.97;;;9.87;;
71696;SDS011;59528;59.082;37.926;2022-11-21T07:24:52;21.43;;;8.50;;
71696;SDS011;59528;59.082;37.926;2022-11-21T07:27:18;25.80;;;8.80;;
71696;SDS011;59528;59.082;37.926;2022-11-21T07:29:44;21.80;;;8.63;;
71696;SDS011;59528;59.082;37.926;2022-11-21T07:32:09;23.50;;;8.40;;
71696;SDS011;59528;59.082;37.926;2022-11-21T07:34:36;28.60;;;7.83;;
71696;SDS011;59528;59.082;37.926;2022-11-21T07:37:02;22.43;;;8.50;;
71696;SDS011;59528;59.082;37.926;2022-11-21T07:39:27;27.23;;;9.00;;
71696;SDS011;59528;59.082;37.926;2022-11-21T07:41:53;28.33;;;9.27;;
71696;SDS011;59528;59.082;37.926;2022-11-21T07:44:19;35.03;;;10.63;;
71696;SDS011;59528;59.082;37.926;2022-11-21T07:46:45;26.63;;;10.93;;
71696;SDS011;59528;59.082;37.926;2022-11-21T07:49:10;25.23;;;10.37;;
71696;SDS011;59528;59.082;37.926;2022-11-21T07:51:36;31.97;;;11.27;;
71696;SDS011;59528;59.082;37.926;2022-11-21T07:54:02;31.23;;;11.00;;
71696;SDS011;59528;59.082;37.926;2022-11-21T07:56:27;31.40;;;11.20;;
71696;SDS011;59528;59.082;37.926;2022-11-21T07:58:53;35.00;;;11.50;;
71696;SDS011;59528;59.082;37.926;2022-11-21T08:01:20;33.93;;;10.80;;
71696;SDS011;59528;59.082;37.926;2022-11-21T08:03:45;26.60;;;10.70;;
71696;SDS011;59528;59.082;37.926;2022-11-21T08:06:11;28.27;;;10.50;;
71696;SDS011;59528;59.082;37.926;2022-11-21T08:08:37;29.63;;;10.90;;
71696;SDS011;59528;59.082;37.926;2022-11-21T08:11:03;32.27;;;11.03;;
71696;SDS011;59528;59.082;37.926;2022-11-21T08:13:29;33.50;;;10.47;;
71696;SDS011;59528;59.082;37.926;2022-11-21T08:15:54;31.63;;;11.03;;
71696;SDS011;59528;59.082;37.926;2022-11-21T08:18:21;35.73;;;11.83;;
71696;SDS011;59528;59.082;37.926;2022-11-21T08:20:47;35.37;;;11.30;;
71696;SDS011;59528;59.082;37.926;2022-11-21T08:23:12;29.90;;;10.97;;
71696;SDS011;59528;59.082;37.926;2022-11-21T08:25:39;35.00;;;10.90;;
71696;SDS011;59528;59.082;37.926;2022-11-21T08:28:05;26.07;;;9.87;;
71696;SDS011;59528;59.082;37.926;2022-11-21T08:30:31;36.17;;;11.27;;
71696;SDS011;59528;59.082;37.926;2022-11-21T08:32:56;32.40;;;10.00;;
71696;SDS011;59528;59.082;37.926;2022-11-21T08:35:24;31.80;;;11.23;;
71696;SDS011;59528;59.082;37.926;2022-11-21T08:37:56;30.20;;;10.57;;
71696;SDS011;59528;59.082;37.926;2022-11-21T08:40:23;37.83;;;11.37;;
71696;SDS011;59528;59.082;37.926;2022-11-21T08:42:55;31.00;;;11.13;;
71696;SDS011;59528;59.082;37.926;2022-11-21T08:45:20;32.80;;;11.10;;
71696;SDS011;59528;59.082;37.926;2022-11-21T08:47:46;25.87;;;11.73;;
71696;SDS011;59528;59.082;37.926;2022-11-21T08:50:12;35.10;;;11.03;;
71696;SDS011;59528;59.082;37.926;2022-11-21T08:52:38;33.53;;;10.57;;
71696;SDS011;59528;59.082;37.926;2022-11-21T08:55:04;27.40;;;9.83;;
71696;SDS011;59528;59.082;37.926;2022-11-21T08:57:30;28.40;;;9.73;;
71696;SDS011;59528;59.082;37.926;2022-11-21T08:59:55;30.63;;;10.40;;
71696;SDS011;59528;59.082;37.926;2022-11-21T09:02:21;28.83;;;10.70;;
71696;SDS011;59528;59.082;37.926;2022-11-21T09:04:47;28.73;;;9.47;;
71696;SDS011;59528;59.082;37.926;2022-11-21T09:07:12;31.27;;;11.53;;
71696;SDS011;59528;59.082;37.926;2022-11-21T09:09:39;25.77;;;8.97;;
71696;SDS011;59528;59.082;37.926;2022-11-21T09:12:04;17.77;;;7.83;;
71696;SDS011;59528;59.082;37.926;2022-11-21T09:14:30;22.07;;;8.07;;
71696;SDS011;59528;59.082;37.926;2022-11-21T09:17:14;18.87;;;7.77;;
71696;SDS011;59528;59.082;37.926;2022-11-21T09:19:58;19.43;;;7.43;;
71696;SDS011;59528;59.082;37.926;2022-11-21T09:22:25;16.20;;;7.27;;
71696;SDS011;59528;59.082;37.926;2022-11-21T09:24:51;16.00;;;7.67;;
71696;SDS011;59528;59.082;37.926;2022-11-21T09:27:16;19.30;;;7.50;;
71696;SDS011;59528;59.082;37.926;2022-11-21T09:29:42;21.37;;;7.67;;
71696;SDS011;59528;59.082;37.926;2022-11-21T09:32:07;21.83;;;9.00;;
71696;SDS011;59528;59.082;37.926;2022-11-21T09:34:33;16.90;;;7.80;;
71696;SDS011;59528;59.082;37.926;2022-11-21T09:36:58;23.17;;;7.80;;
71696;SDS011;59528;59.082;37.926;2022-11-21T09:39:25;22.07;;;7.93;;
71696;SDS011;59528;59.082;37.926;2022-11-21T09:44:27;16.57;;;8.03;;
71696;SDS011;59528;59.082;37.926;2022-11-21T09:47:42;25.07;;;8.80;;
71696;SDS011;59528;59.082;37.926;2022-11-21T09:49:42;17.70;;;8.07;;
71696;SDS011;59528;59.082;37.926;2022-11-21T09:52:10;22.93;;;9.27;;
71696;SDS011;59528;59.082;37.926;2022-11-21T09:54:40;22.57;;;9.40;;
71696;SDS011;59528;59.082;37.926;2022-11-21T09:57:09;26.43;;;10.10;;
71696;SDS011;59528;59.082;37.926;2022-11-21T09:59:38;21.83;;;9.73;;
71696;SDS011;59528;59.082;37.926;2022-11-21T10:02:17;15.97;;;8.00;;
71696;SDS011;59528;59.082;37.926;2022-11-21T10:04:44;18.27;;;7.63;;
71696;SDS011;59528;59.082;37.926;2022-11-21T10:12:27;13.60;;;5.60;;
71696;SDS011;59528;59.082;37.926;2022-11-21T10:22:30;12.70;;;5.47;;
71696;SDS011;59528;59.082;37.926;2022-11-21T10:25:02;11.57;;;5.57;;
71696;SDS011;59528;59.082;37.926;2022-11-21T10:27:36;13.70;;;4.93;;
71696;SDS011;59528;59.082;37.926;2022-11-21T10:30:13;13.20;;;4.83;;
71696;SDS011;59528;59.082;37.926;2022-11-21T10:32:42;13.13;;;4.87;;
71696;SDS011;59528;59.082;37.926;2022-11-21T10:35:15;13.17;;;5.50;;
71696;SDS011;59528;59.082;37.926;2022-11-21T10:37:58;11.40;;;5.27;;
71696;SDS011;59528;59.082;37.926;2022-11-21T10:40:43;12.23;;;5.40;;
71696;SDS011;59528;59.082;37.926;2022-11-21T10:46:17;11.10;;;4.93;;
71696;SDS011;59528;59.082;37.926;2022-11-21T10:48:55;12.27;;;4.30;;
71696;SDS011;59528;59.082;37.926;2022-11-21T10:51:24;11.30;;;4.60;;
71696;SDS011;59528;59.082;37.926;2022-11-21T10:57:13;12.07;;;4.40;;
71696;SDS011;59528;59.082;37.926;2022-11-21T10:59:54;10.63;;;4.63;;
71696;SDS011;59528;59.082;37.926;2022-11-21T11:02:23;11.97;;;4.67;;
71696;SDS011;59528;59.082;37.926;2022-11-21T11:07:34;12.93;;;4.23;;
71696;SDS011;59528;59.082;37.926;2022-11-21T11:10:21;7.23;;;4.10;;
71696;SDS011;59528;59.082;37.926;2022-11-21T11:12:47;8.67;;;3.87;;
71696;SDS011;59528;59.082;37.926;2022-11-21T11:15:32;7.47;;;3.20;;
71696;SDS011;59528;59.082;37.926;2022-11-21T11:18:01;13.80;;;4.57;;
71696;SDS011;59528;59.082;37.926;2022-11-21T11:20:38;8.17;;;4.20;;
71696;SDS011;59528;59.082;37.926;2022-11-21T11:25:53;13.27;;;3.90;;
71696;SDS011;59528;59.082;37.926;2022-11-21T11:28:20;8.13;;;3.60;;
71696;SDS011;59528;59.082;37.926;2022-11-21T11:30:48;10.57;;;4.03;;
71696;SDS011;59528;59.082;37.926;2022-11-21T11:38:35;7.97;;;3.73;;
71696;SDS011;59528;59.082;37.926;2022-11-21T11:41:04;8.60;;;3.53;;
71696;SDS011;59528;59.082;37.926;2022-11-21T11:46:26;7.90;;;3.80;;
71696;SDS011;59528;59.082;37.926;2022-11-21T11:51:58;6.70;;;3.13;;
71696;SDS011;59528;59.082;37.926;2022-11-21T11:54:28;6.40;;;3.30;;
71696;SDS011;59528;59.082;37.926;2022-11-21T11:56:57;9.47;;;3.30;;
71696;SDS011;59528;59.082;37.926;2022-11-21T12:01:50;11.10;;;3.13;;
71696;SDS011;59528;59.082;37.926;2022-11-21T12:04:18;8.47;;;3.50;;
71696;SDS011;59528;59.082;37.926;2022-11-21T12:09:29;8.37;;;3.30;;
71696;SDS011;59528;59.082;37.926;2022-11-21T12:12:14;7.87;;;3.10;;
71696;SDS011;59528;59.082;37.926;2022-11-21T12:20:29;9.03;;;3.20;;
71696;SDS011;59528;59.082;37.926;2022-11-21T12:22:57;6.37;;;3.00;;
71696;SDS011;59528;59.082;37.926;2022-11-21T12:25:27;8.00;;;2.87;;
71696;SDS011;59528;59.082;37.926;2022-11-21T12:27:55;8.13;;;3.80;;
71696;SDS011;59528;59.082;37.926;2022-11-21T12:35:36;8.47;;;3.40;;
71696;SDS011;59528;59.082;37.926;2022-11-21T12:45:25;7.93;;;4.07;;
71696;SDS011;59528;59.082;37.926;2022-11-21T12:53:48;9.80;;;4.10;;
71696;SDS011;59528;59.082;37.926;2022-11-21T12:59:07;9.17;;;4.40;;
71696;SDS011;59528;59.082;37.926;2022-11-21T13:04:16;11.83;;;4.00;;
71696;SDS011;59528;59.082;37.926;2022-11-21T13:06:44;9.40;;;4.17;;
71696;SDS011;59528;59.082;37.926;2022-11-21T13:09:14;6.90;;;3.47;;
71696;SDS011;59528;59.082;37.926;2022-11-21T13:17:40;9.17;;;3.73;;
71696;SDS011;59528;59.082;37.926;2022-11-21T13:24:59;9.13;;;3.70;;
71696;SDS011;59528;59.082;37.926;2022-11-21T13:32:41;11.03;;;4.10;;
71696;SDS011;59528;59.082;37.926;2022-11-21T13:50:43;11.90;;;4.43;;
71696;SDS011;59528;59.082;37.926;2022-11-21T13:55:56;10.77;;;3.57;;
71696;SDS011;59528;59.082;37.926;2022-11-21T13:58:36;9.50;;;3.37;;
71696;SDS011;59528;59.082;37.926;2022-11-21T14:01:10;7.03;;;3.03;;
71696;SDS011;59528;59.082;37.926;2022-11-21T14:11:38;10.47;;;3.70;;
71696;SDS011;59528;59.082;37.926;2022-11-21T14:14:06;8.17;;;3.50;;
71696;SDS011;59528;59.082;37.926;2022-11-21T14:16:34;6.97;;;3.40;;
71696;SDS011;59528;59.082;37.926;2022-11-21T14:19:01;6.10;;;3.03;;
71696;SDS011;59528;59.082;37.926;2022-11-21T14:21:30;6.70;;;3.33;;
71696;SDS011;59528;59.082;37.926;2022-11-21T14:23:57;6.80;;;3.53;;
71696;SDS011;59528;59.082;37.926;2022-11-21T14:26:24;8.87;;;3.47;;
71696;SDS011;59528;59.082;37.926;2022-11-21T14:28:50;8.43;;;3.50;;
71696;SDS011;59528;59.082;37.926;2022-11-21T14:31:16;8.83;;;3.57;;
71696;SDS011;59528;59.082;37.926;2022-11-21T14:33:44;7.93;;;3.00;;
71696;SDS011;59528;59.082;37.926;2022-11-21T14:36:25;7.60;;;3.63;;
71696;SDS011;59528;59.082;37.926;2022-11-21T14:38:54;10.77;;;3.50;;
71696;SDS011;59528;59.082;37.926;2022-11-21T14:43:49;7.57;;;3.50;;
71696;SDS011;59528;59.082;37.926;2022-11-21T14:46:16;6.70;;;3.07;;
71696;SDS011;59528;59.082;37.926;2022-11-21T14:48:44;6.13;;;3.30;;
71696;SDS011;59528;59.082;37.926;2022-11-21T14:51:10;5.77;;;2.87;;
71696;SDS011;59528;59.082;37.926;2022-11-21T14:53:39;6.73;;;3.10;;
71696;SDS011;59528;59.082;37.926;2022-11-21T14:56:10;8.57;;;3.47;;
71696;SDS011;59528;59.082;37.926;2022-11-21T14:58:37;7.30;;;3.50;;
71696;SDS011;59528;59.082;37.926;2022-11-21T15:01:05;7.87;;;3.20;;
71696;SDS011;59528;59.082;37.926;2022-11-21T15:03:32;8.90;;;3.73;;
71696;SDS011;59528;59.082;37.926;2022-11-21T15:06:03;7.83;;;3.27;;
71696;SDS011;59528;59.082;37.926;2022-11-21T15:08:29;7.73;;;3.40;;
71696;SDS011;59528;59.082;37.926;2022-11-21T15:10:54;9.67;;;3.43;;
71696;SDS011;59528;59.082;37.926;2022-11-21T15:13:21;9.40;;;3.43;;
71696;SDS011;59528;59.082;37.926;2022-11-21T15:15:51;8.00;;;3.53;;
71696;SDS011;59528;59.082;37.926;2022-11-21T15:18:22;7.07;;;3.47;;
71696;SDS011;59528;59.082;37.926;2022-11-21T15:20:50;8.07;;;3.73;;
71696;SDS011;59528;59.082;37.926;2022-11-21T15:23:26;6.63;;;3.10;;
71696;SDS011;59528;59.082;37.926;2022-11-21T15:25:52;7.03;;;3.10;;
71696;SDS011;59528;59.082;37.926;2022-11-21T15:28:19;7.53;;;3.40;;
71696;SDS011;59528;59.082;37.926;2022-11-21T15:30:44;6.37;;;3.40;;
71696;SDS011;59528;59.082;37.926;2022-11-21T15:38:19;6.60;;;3.47;;
71696;SDS011;59528;59.082;37.926;2022-11-21T15:43:40;6.03;;;2.93;;
71696;SDS011;59528;59.082;37.926;2022-11-21T15:46:23;9.23;;;3.30;;
71696;SDS011;59528;59.082;37.926;2022-11-21T15:48:51;7.80;;;3.37;;
71696;SDS011;59528;59.082;37.926;2022-11-21T15:51:18;5.77;;;3.00;;
71696;SDS011;59528;59.082;37.926;2022-11-21T15:53:45;7.03;;;3.30;;
71696;SDS011;59528;59.082;37.926;2022-11-21T15:56:14;6.67;;;3.40;;
71696;SDS011;59528;59.082;37.926;2022-11-21T15:58:41;10.03;;;3.10;;
71696;SDS011;59528;59.082;37.926;2022-11-21T16:01:13;8.80;;;3.50;;
71696;SDS011;59528;59.082;37.926;2022-11-21T16:03:40;7.37;;;2.80;;
71696;SDS011;59528;59.082;37.926;2022-11-21T16:06:06;5.73;;;3.47;;
71696;SDS011;59528;59.082;37.926;2022-11-21T16:08:32;5.80;;;3.33;;
71696;SDS011;59528;59.082;37.926;2022-11-21T16:10:57;6.90;;;3.20;;
71696;SDS011;59528;59.082;37.926;2022-11-21T16:13:24;6.93;;;3.53;;
71696;SDS011;59528;59.082;37.926;2022-11-21T16:15:49;6.53;;;3.30;;
71696;SDS011;59528;59.082;37.926;2022-11-21T16:18:15;9.83;;;3.40;;
71696;SDS011;59528;59.082;37.926;2022-11-21T16:20:41;8.20;;;4.00;;
71696;SDS011;59528;59.082;37.926;2022-11-21T16:23:08;8.57;;;3.63;;
71696;SDS011;59528;59.082;37.926;2022-11-21T16:25:33;10.93;;;4.30;;
71696;SDS011;59528;59.082;37.926;2022-11-21T16:27:59;9.53;;;4.27;;
71696;SDS011;59528;59.082;37.926;2022-11-21T16:30:25;12.53;;;3.57;;
71696;SDS011;59528;59.082;37.926;2022-11-21T16:32:50;9.70;;;3.90;;
71696;SDS011;59528;59.082;37.926;2022-11-21T16:35:20;6.47;;;3.87;;
71696;SDS011;59528;59.082;37.926;2022-11-21T16:37:46;10.93;;;3.80;;
71696;SDS011;59528;59.082;37.926;2022-11-21T16:40:11;8.27;;;3.73;;